| time (UTC) | temp C | wind direction | speed KPH | gust KPH | rain 1hr cm | rain 24hr cm | rain mn cm | humidity % | barometer mb |
| 20260507000918 | 20 | 211 | 3.2 | 8.0 | 0.00 | 0.20 | 0.20 | 81 | 1009.8 |
| 20260506230858 | 21 | 188 | 9.7 | 9.7 | 0.00 | 0.20 | 0.20 | 77 | 1009.3 |
| 20260506220902 | 21 | 233 | 6.4 | 6.4 | 0.00 | 0.20 | 0.20 | 76 | 1009.3 |
| 20260506210844 | 21 | 185 | 6.4 | 14.5 | 0.00 | 0.20 | 0.20 | 77 | 1009.3 |
| 20260506200844 | 20 | 207 | 8.0 | 8.0 | 0.00 | 0.20 | 0.20 | 83 | 1009.8 |
| 20260506190901 | 19 | 169 | 6.4 | 8.0 | 0.03 | 0.20 | 0.20 | 84 | 1009.8 |
| 20260506180907 | 18 | 174 | 11.3 | 16.1 | 0.00 | 0.18 | 0.18 | 84 | 1010.8 |
| 20260506170903 | 18 | 182 | 6.4 | 6.4 | 0.00 | 0.18 | 0.18 | 88 | 1010.5 |
| 20260506160854 | 17 | 173 | 6.4 | 8.0 | 0.03 | 0.18 | 0.18 | 89 | 1011.0 |
| 20260506150850 | 17 | 160 | 8.0 | 12.9 | 0.15 | 0.15 | 0.15 | 89 | 1011.9 |
| 20260506140906 | 17 | 176 | 8.0 | 11.3 | 0.00 | 0.00 | 0.00 | 83 | 1012.1 |
| 20260506130908 | 18 | 186 | 8.0 | 8.0 | 0.00 | 0.00 | 0.00 | 74 | 1011.7 |
| 20260506120853 | 18 | 196 | 9.7 | 14.5 | 0.00 | 0.00 | 0.00 | 73 | 1011.4 |
| 20260506110852 | 17 | 188 | 9.7 | 9.7 | 0.00 | 0.00 | 0.00 | 76 | 1011.4 |
| 20260506100901 | 17 | 189 | 4.8 | 8.0 | 0.00 | 0.00 | 0.00 | 75 | 1011.5 |
| 20260506090900 | 17 | 196 | 8.0 | 16.1 | 0.00 | 0.00 | 0.00 | 76 | 1011.4 |
| 20260506080900 | 17 | 184 | 9.7 | 9.7 | 0.00 | 0.00 | 0.00 | 75 | 1011.9 |
| 20260506070852 | 18 | 182 | 8.0 | 14.5 | 0.00 | 0.00 | 0.00 | 72 | 1012.0 |
| 20260506060849 | 18 | 144 | 24.1 | 24.1 | 0.00 | 0.00 | 0.00 | 70 | 1012.3 |
| 20260506050859 | 20 | 180 | 17.7 | 22.5 | 0.00 | 0.00 | 0.00 | 67 | 1012.6 |
| 20260506040851 | 21 | 165 | 14.5 | 14.5 | 0.00 | 0.00 | 0.00 | 62 | 1012.9 |
| 20260506030948 | 21 | 173 | 14.5 | 14.5 | 0.00 | 0.00 | 0.00 | 58 | 1012.6 |
| 20260506020959 | 22 | 186 | 3.2 | 6.4 | 0.00 | 0.00 | 0.00 | 54 | 1012.6 |
| 20260506011001 | 23 | 162 | 4.8 | 4.8 | 0.00 | 0.00 | 0.00 | 51 | 1012.2 |